This is the latest recevied weather packets stored in our database for station/object DF7ER-12. If no packets are shown the sender has not sent any weather packets the latest 10 day(s).
| Time | Temp. | Humidity | Pressure | Rain* | Wind** | Luminosity | Snow |
|---|---|---|---|---|---|---|---|
| 1788093018 | 25° C | 77% | 999.6 hPa | - | - | - | - |
| 1788092717 | 25.56° C | 77% | 999.7 hPa | - | - | - | - |
| 1788092417 | 25.56° C | 77% | 999.7 hPa | - | - | - | - |
| 1788092118 | 25.56° C | 78% | 999.7 hPa | - | - | - | - |
| 1788091817 | 24.44° C | 79% | 999.6 hPa | - | - | - | - |
| 1788091517 | 25° C | 79% | 999.6 hPa | - | - | - | - |
| 1788091233 | 25° C | 78% | 999.5 hPa | - | - | - | - |
| 1788090917 | 25° C | 78% | 999.5 hPa | - | - | - | - |
| 1788090618 | 24.44° C | 79% | 999.5 hPa | - | - | - | - |
| 1788090594 | 24.44° C | 79% | 999.5 hPa | - | - | - | - |
| 1788090029 | 24.44° C | 79% | 999.5 hPa | - | - | - | - |
| 1788089717 | 24.44° C | 80% | 999.5 hPa | - | - | - | - |
| 1788089024 | 24.44° C | 80% | 999.5 hPa | - | - | - | - |
| 1788088726 | 25.56° C | 78% | 999.4 hPa | - | - | - | - |
| 1788087078 | 23.89° C | 82% | 999.3 hPa | - | - | - | - |
| 1788086778 | 24.44° C | 80% | 999.3 hPa | - | - | - | - |
| 1788086489 | 24.44° C | 80% | 999.2 hPa | - | - | - | - |
| 1788086178 | 23.33° C | 82% | 999.1 hPa | - | - | - | - |
| 1788085878 | 23.33° C | 82% | 999.1 hPa | - | - | - | - |
| 1788085578 | 23.89° C | 82% | 999.1 hPa | - | - | - | - |
| 1788085278 | 23.89° C | 81% | 999.1 hPa | - | - | - | - |
| 1788084978 | 23.89° C | 82% | 999.1 hPa | - | - | - | - |
| 1788084678 | 23.89° C | 82% | 999.1 hPa | - | - | - | - |
| 1788084378 | 23.89° C | 81% | 999.1 hPa | - | - | - | - |
| 1788084078 | 23.33° C | 82% | 999 hPa | - | - | - | - |
* Rain since midnight (hover to see other rain measurements)
** Current wind speed in m/s (hover to see current wind gust speed)